Time;durP1;ratioP1;P1;durP2;ratioP2;P2;SDS_P1;SDS_P2;PMS_P1;PMS_P2;Temp;Humidity;BMP_temperature;BMP_pressure;BME280_temperature;BME280_humidity;BME280_pressure;Samples;Min_cycle;Max_cycle;Signal;HPM_P1;HPM_P2
2021/05/27 00:00:16;;;;;;;0.80;0.60;;;;;;;;;;5056711;28;20426;-73
2021/05/27 00:02:42;;;;;;;0.87;0.57;;;;;;;;;;5046761;28;20422;-72
2021/05/27 00:05:08;;;;;;;0.80;0.50;;;;;;;;;;5052913;28;20439;-73
2021/05/27 00:07:34;;;;;;;1.60;0.60;;;;;;;;;;5036814;28;20407;-74
2021/05/27 00:10:01;;;;;;;0.70;0.50;;;;;;;;;;5054168;28;20473;-73
2021/05/27 00:12:27;;;;;;;1.67;0.93;;;;;;;;;;5054662;28;20893;-73
2021/05/27 00:14:53;;;;;;;0.70;0.57;;;;;;;;;;5072510;28;20402;-73
2021/05/27 00:17:19;;;;;;;0.90;0.50;;;;;;;;;;5072711;28;20844;-73
2021/05/27 00:19:46;;;;;;;2.10;1.33;;;;;;;;;;5067296;28;20438;-74
2021/05/27 00:22:12;;;;;;;2.03;1.20;;;;;;;;;;5071930;28;20377;-73
2021/05/27 00:24:40;;;;;;;0.80;0.70;;;;;;;;;;5056401;28;20748;-73
2021/05/27 00:27:08;;;;;;;1.27;1.17;;;;;;;;;;5034381;28;20433;-74
2021/05/27 00:29:35;;;;;;;0.70;0.50;;;;;;;;;;5058406;28;20497;-73
2021/05/27 00:32:01;;;;;;;0.70;0.60;;;;;;;;;;5071705;28;20455;-74
2021/05/27 00:34:27;;;;;;;0.70;0.50;;;;;;;;;;5068196;28;20476;-74
2021/05/27 00:36:55;;;;;;;1.10;0.90;;;;;;;;;;5072216;28;20406;-73
2021/05/27 00:39:21;;;;;;;2.00;0.87;;;;;;;;;;5071082;28;20396;-75
2021/05/27 00:41:47;;;;;;;0.70;0.50;;;;;;;;;;5072251;28;20738;-75
2021/05/27 00:44:19;;;;;;;1.10;0.60;;;;;;;;;;5059901;28;20479;-75
2021/05/27 00:46:46;;;;;;;0.83;0.70;;;;;;;;;;5053193;28;20461;-74
2021/05/27 00:49:14;;;;;;;0.90;0.60;;;;;;;;;;5052094;28;20918;-74
2021/05/27 00:51:42;;;;;;;3.57;2.93;;;;;;;;;;5033882;28;20782;-73
2021/05/27 00:54:08;;;;;;;0.80;0.80;;;;;;;;;;5044577;28;20420;-75
2021/05/27 00:56:36;;;;;;;1.23;0.70;;;;;;;;;;5072128;28;20381;-78
2021/05/27 00:59:02;;;;;;;2.50;0.87;;;;;;;;;;5057373;28;20417;-78
2021/05/27 01:01:28;;;;;;;1.23;0.57;;;;;;;;;;5057642;28;20409;-78
2021/05/27 01:03:56;;;;;;;7.90;1.03;;;;;;;;;;5065546;28;20414;-77
2021/05/27 01:06:22;;;;;;;0.70;0.40;;;;;;;;;;5071231;28;20425;-78
2021/05/27 01:08:48;;;;;;;6.70;0.70;;;;;;;;;;5054099;28;20768;-78
2021/05/27 01:11:16;;;;;;;0.90;0.80;;;;;;;;;;5054943;28;20481;-78
2021/05/27 01:13:42;;;;;;;0.73;0.57;;;;;;;;;;5062720;28;20477;-77
2021/05/27 01:16:17;;;;;;;0.70;0.53;;;;;;;;;;5074665;28;20426;-77
2021/05/27 01:18:48;;;;;;;1.07;0.97;;;;;;;;;;5056191;28;21038;-73
2021/05/27 01:21:14;;;;;;;0.90;0.70;;;;;;;;;;5051732;28;20433;-78
2021/05/27 01:23:40;;;;;;;0.83;0.83;;;;;;;;;;5035530;28;20399;-76
2021/05/27 01:26:09;;;;;;;5.20;0.97;;;;;;;;;;5051571;28;20435;-76
2021/05/27 01:28:36;;;;;;;0.80;0.50;;;;;;;;;;5056829;28;20932;-75
2021/05/27 01:31:03;;;;;;;0.70;0.60;;;;;;;;;;5051101;28;20411;-74
2021/05/27 01:33:29;;;;;;;1.13;0.87;;;;;;;;;;5051396;28;20393;-76
2021/05/27 01:35:59;;;;;;;0.80;0.80;;;;;;;;;;5055543;28;20761;-81
2021/05/27 01:38:26;;;;;;;0.70;0.57;;;;;;;;;;5056686;28;20398;-78
2021/05/27 01:40:53;;;;;;;0.80;0.73;;;;;;;;;;5054910;28;20774;-77
2021/05/27 01:43:20;;;;;;;1.73;0.63;;;;;;;;;;5052102;28;20419;-77
2021/05/27 01:45:46;;;;;;;1.10;0.70;;;;;;;;;;5033372;28;20541;-75
2021/05/27 01:48:12;;;;;;;0.80;0.60;;;;;;;;;;5032995;28;20403;-75
2021/05/27 01:50:42;;;;;;;0.80;0.50;;;;;;;;;;5050814;28;20445;-75
2021/05/27 01:53:08;;;;;;;0.80;0.53;;;;;;;;;;5048168;28;20429;-74
2021/05/27 01:55:34;;;;;;;1.30;0.60;;;;;;;;;;5033080;28;20415;-74
2021/05/27 01:58:03;;;;;;;0.80;0.73;;;;;;;;;;5050768;28;20434;-74
2021/05/27 02:00:29;;;;;;;0.70;0.60;;;;;;;;;;5050676;28;21104;-75
2021/05/27 02:02:55;;;;;;;0.90;0.80;;;;;;;;;;5053262;28;20430;-75
2021/05/27 02:05:21;;;;;;;0.80;0.70;;;;;;;;;;5070133;28;20502;-76
2021/05/27 02:07:48;;;;;;;1.27;1.10;;;;;;;;;;5052747;28;21161;-75
2021/05/27 02:10:14;;;;;;;1.63;0.90;;;;;;;;;;5041597;23;21019;-67
2021/05/27 02:12:40;;;;;;;0.90;0.40;;;;;;;;;;5004601;28;20516;-70
2021/05/27 02:15:07;;;;;;;0.70;0.50;;;;;;;;;;5010970;28;20782;-68
2021/05/27 02:17:33;;;;;;;0.80;0.60;;;;;;;;;;5011273;28;20892;-68
2021/05/27 02:19:59;;;;;;;0.70;0.50;;;;;;;;;;5009997;28;20398;-66
2021/05/27 02:22:25;;;;;;;1.30;0.80;;;;;;;;;;5009823;28;20920;-68
2021/05/27 02:24:51;;;;;;;0.80;0.60;;;;;;;;;;5058142;22;20483;-69
2021/05/27 02:27:17;;;;;;;1.53;0.57;;;;;;;;;;5038846;28;20465;-69
2021/05/27 02:29:43;;;;;;;2.70;2.00;;;;;;;;;;5053259;28;20470;-68
2021/05/27 02:32:09;;;;;;;0.90;0.60;;;;;;;;;;5073374;28;20405;-68
2021/05/27 02:34:35;;;;;;;0.70;0.50;;;;;;;;;;5040168;28;20431;-69
2021/05/27 02:37:01;;;;;;;0.80;0.50;;;;;;;;;;5030414;28;20521;-69
2021/05/27 02:39:27;;;;;;;0.80;0.60;;;;;;;;;;5029737;28;20963;-68
2021/05/27 02:41:54;;;;;;;0.90;0.63;;;;;;;;;;5050431;28;20406;-69
2021/05/27 02:44:20;;;;;;;1.00;0.80;;;;;;;;;;5032215;28;20446;-69
2021/05/27 02:46:46;;;;;;;0.80;0.50;;;;;;;;;;5050201;28;20489;-69
2021/05/27 02:49:12;;;;;;;0.70;0.50;;;;;;;;;;5049338;28;20418;-70
2021/05/27 02:51:38;;;;;;;0.70;0.50;;;;;;;;;;5041473;28;20418;-69
2021/05/27 02:54:04;;;;;;;0.70;0.43;;;;;;;;;;5049885;28;20507;-69
2021/05/27 02:56:30;;;;;;;0.80;0.40;;;;;;;;;;5035986;28;20414;-70
2021/05/27 02:58:56;;;;;;;1.07;0.80;;;;;;;;;;5053326;28;20429;-69
2021/05/27 03:01:22;;;;;;;0.80;0.57;;;;;;;;;;5051800;28;20418;-69
2021/05/27 03:03:48;;;;;;;2.27;1.20;;;;;;;;;;5053513;28;20492;-69
2021/05/27 03:06:15;;;;;;;0.70;0.50;;;;;;;;;;5053824;28;20965;-69
2021/05/27 03:08:41;;;;;;;0.70;0.50;;;;;;;;;;5053197;28;20415;-69
2021/05/27 03:11:08;;;;;;;1.57;0.50;;;;;;;;;;5039267;28;20415;-69
2021/05/27 03:13:34;;;;;;;1.57;0.87;;;;;;;;;;5033751;28;20926;-69
2021/05/27 03:16:01;;;;;;;1.10;0.50;;;;;;;;;;5038273;28;20841;-69
2021/05/27 03:18:27;;;;;;;0.70;0.47;;;;;;;;;;5045150;28;20410;-69
2021/05/27 03:20:53;;;;;;;0.80;0.50;;;;;;;;;;5044227;28;20918;-69
2021/05/27 03:23:19;;;;;;;1.00;0.50;;;;;;;;;;5053135;28;20504;-69
2021/05/27 03:25:45;;;;;;;0.70;0.40;;;;;;;;;;5043589;28;20451;-68
2021/05/27 03:28:11;;;;;;;0.70;0.40;;;;;;;;;;5033840;28;20490;-69
2021/05/27 03:30:37;;;;;;;0.70;0.40;;;;;;;;;;5040462;28;20387;-69
2021/05/27 03:33:04;;;;;;;0.70;0.50;;;;;;;;;;5043277;28;20427;-68
2021/05/27 03:35:30;;;;;;;3.07;0.60;;;;;;;;;;5031857;28;20408;-69
2021/05/27 03:37:56;;;;;;;0.80;0.50;;;;;;;;;;5053224;28;20415;-68
2021/05/27 03:40:22;;;;;;;1.37;1.07;;;;;;;;;;5034149;28;21056;-68
2021/05/27 03:42:49;;;;;;;1.77;0.80;;;;;;;;;;5053287;28;20399;-69
2021/05/27 03:45:20;;;;;;;0.70;0.47;;;;;;;;;;5053328;28;20509;-69
2021/05/27 03:47:46;;;;;;;0.87;0.53;;;;;;;;;;5053021;28;20549;-68
2021/05/27 03:50:14;;;;;;;0.70;0.50;;;;;;;;;;5047308;28;20415;-69
2021/05/27 03:52:40;;;;;;;1.07;0.80;;;;;;;;;;5033483;28;20427;-69
2021/05/27 03:55:07;;;;;;;0.70;0.43;;;;;;;;;;5033236;28;20422;-69
2021/05/27 03:57:33;;;;;;;1.20;0.60;;;;;;;;;;5033320;28;20427;-69
2021/05/27 04:02:48;;;;;;;0.70;0.40;;;;;;;;;;5053163;28;20405;-68
2021/05/27 04:07:59;;;;;;;0.70;0.47;;;;;;;;;;5049102;28;20944;-68
2021/05/27 04:10:26;;;;;;;1.03;0.93;;;;;;;;;;5033189;28;20411;-70
2021/05/27 04:12:52;;;;;;;0.80;0.60;;;;;;;;;;5032547;28;20391;-70
2021/05/27 04:15:32;;;;;;;;;;;;;;;;;;;;;
2021/05/27 04:17:58;;;;;;;0.70;0.40;;;;;;;;;;5032883;28;20410;-69
2021/05/27 04:20:25;;;;;;;5.70;0.67;;;;;;;;;;5037302;28;20817;-69
2021/05/27 04:22:51;;;;;;;1.57;0.73;;;;;;;;;;5052100;28;20395;-69
2021/05/27 04:25:18;;;;;;;1.10;0.80;;;;;;;;;;5041297;28;20412;-69
2021/05/27 04:27:44;;;;;;;0.80;0.70;;;;;;;;;;5040851;28;20454;-67
2021/05/27 04:30:15;;;;;;;1.17;1.07;;;;;;;;;;5036382;28;20453;-69
2021/05/27 04:32:54;;;;;;;0.80;0.53;;;;;;;;;;5038092;28;20407;-69
2021/05/27 04:35:23;;;;;;;0.70;0.40;;;;;;;;;;5047574;28;20416;-68
2021/05/27 04:37:49;;;;;;;0.70;0.47;;;;;;;;;;5051003;28;20414;-69
2021/05/27 04:40:15;;;;;;;0.80;0.50;;;;;;;;;;5048951;28;20407;-69
2021/05/27 04:42:41;;;;;;;1.00;0.67;;;;;;;;;;5052152;28;20395;-69
2021/05/27 04:45:08;;;;;;;0.70;0.50;;;;;;;;;;5052304;28;20495;-69
2021/05/27 04:47:34;;;;;;;5.83;2.37;;;;;;;;;;5034482;28;20416;-69
2021/05/27 04:50:00;;;;;;;1.30;0.70;;;;;;;;;;5031518;28;20491;-69
2021/05/27 04:52:26;;;;;;;0.73;0.60;;;;;;;;;;5032178;28;20435;-69
2021/05/27 04:54:52;;;;;;;0.70;0.40;;;;;;;;;;5030358;28;20469;-68
2021/05/27 04:57:18;;;;;;;0.83;0.83;;;;;;;;;;5052249;28;20445;-68
2021/05/27 04:59:44;;;;;;;1.20;0.93;;;;;;;;;;5051071;28;20399;-69
2021/05/27 05:02:10;;;;;;;0.70;0.50;;;;;;;;;;5017527;28;20423;-69
2021/05/27 05:04:36;;;;;;;2.70;0.80;;;;;;;;;;5036487;28;20930;-69
2021/05/27 05:07:02;;;;;;;1.37;0.73;;;;;;;;;;5036620;28;20451;-69
2021/05/27 05:09:28;;;;;;;1.00;0.90;;;;;;;;;;5041189;28;20491;-69
2021/05/27 05:11:54;;;;;;;1.67;1.17;;;;;;;;;;5048676;28;20418;-69
2021/05/27 05:14:20;;;;;;;0.80;0.50;;;;;;;;;;5049580;28;20431;-68
2021/05/27 05:16:46;;;;;;;1.00;0.60;;;;;;;;;;5036361;28;20426;-69
2021/05/27 05:19:12;;;;;;;0.93;0.93;;;;;;;;;;5043103;28;21049;-68
2021/05/27 05:21:38;;;;;;;0.70;0.53;;;;;;;;;;5048370;28;20415;-69
2021/05/27 05:24:04;;;;;;;0.70;0.43;;;;;;;;;;5050159;28;20922;-68
2021/05/27 05:26:30;;;;;;;1.07;0.50;;;;;;;;;;5047401;28;20455;-68
2021/05/27 05:28:56;;;;;;;1.63;0.70;;;;;;;;;;5033665;28;20403;-69
2021/05/27 05:31:22;;;;;;;0.70;0.60;;;;;;;;;;5034044;28;20485;-68
2021/05/27 05:33:48;;;;;;;1.13;0.83;;;;;;;;;;5018759;28;20432;-68
2021/05/27 05:36:15;;;;;;;0.90;0.50;;;;;;;;;;5034390;28;20410;-68
2021/05/27 05:38:40;;;;;;;0.70;0.50;;;;;;;;;;5040931;28;20408;-69
2021/05/27 05:41:06;;;;;;;0.80;0.67;;;;;;;;;;5048010;28;20924;-69
2021/05/27 05:43:32;;;;;;;0.90;0.73;;;;;;;;;;5043439;28;21041;-69
2021/05/27 05:45:58;;;;;;;1.00;0.50;;;;;;;;;;5036868;28;20447;-69
2021/05/27 05:48:25;;;;;;;0.80;0.70;;;;;;;;;;5016207;28;20428;-69
2021/05/27 05:50:53;;;;;;;0.70;0.40;;;;;;;;;;5034361;28;20472;-69
2021/05/27 05:53:20;;;;;;;0.70;0.50;;;;;;;;;;5048654;28;20423;-68
2021/05/27 05:55:46;;;;;;;0.90;0.67;;;;;;;;;;5037305;28;20495;-69
2021/05/27 05:58:12;;;;;;;0.90;0.70;;;;;;;;;;5050231;28;20452;-70
2021/05/27 06:00:38;;;;;;;1.10;0.67;;;;;;;;;;5040970;28;20382;-69
2021/05/27 06:03:04;;;;;;;0.80;0.50;;;;;;;;;;5035294;28;20768;-69
2021/05/27 06:05:31;;;;;;;0.70;0.43;;;;;;;;;;5034946;28;20462;-69
2021/05/27 06:07:57;;;;;;;0.80;0.57;;;;;;;;;;5035425;28;20498;-70
2021/05/27 06:10:24;;;;;;;0.70;0.40;;;;;;;;;;5033069;28;20498;-69
2021/05/27 06:12:50;;;;;;;2.00;1.20;;;;;;;;;;5040058;28;20416;-70
2021/05/27 06:15:20;;;;;;;0.70;0.50;;;;;;;;;;5022489;28;20438;-69
2021/05/27 06:17:46;;;;;;;3.00;1.17;;;;;;;;;;5040752;28;20827;-69
2021/05/27 06:20:13;;;;;;;1.47;1.37;;;;;;;;;;5044982;28;20407;-69
2021/05/27 06:22:39;;;;;;;1.03;0.70;;;;;;;;;;5036808;28;20419;-69
2021/05/27 06:25:05;;;;;;;1.37;1.27;;;;;;;;;;5041455;28;21092;-69
2021/05/27 06:27:31;;;;;;;0.80;0.60;;;;;;;;;;5033785;28;20790;-69
2021/05/27 06:29:57;;;;;;;0.70;0.50;;;;;;;;;;5041821;28;20411;-68
2021/05/27 06:32:22;;;;;;;1.17;0.70;;;;;;;;;;5046114;28;20403;-69
2021/05/27 06:34:50;;;;;;;0.70;0.47;;;;;;;;;;5046230;28;20501;-68
2021/05/27 06:37:16;;;;;;;0.87;0.50;;;;;;;;;;5052150;28;20419;-69
2021/05/27 06:39:42;;;;;;;0.70;0.50;;;;;;;;;;5053475;28;20928;-68
2021/05/27 06:42:08;;;;;;;0.70;0.50;;;;;;;;;;5028670;28;20389;-69
2021/05/27 06:44:34;;;;;;;0.90;0.60;;;;;;;;;;5053903;28;20397;-69
2021/05/27 06:47:00;;;;;;;2.40;0.70;;;;;;;;;;5045119;28;20521;-69
2021/05/27 06:49:26;;;;;;;0.70;0.50;;;;;;;;;;5041513;28;20457;-69
2021/05/27 06:51:56;;;;;;;1.20;0.63;;;;;;;;;;5022302;28;20415;-69
2021/05/27 06:54:22;;;;;;;0.80;0.60;;;;;;;;;;5044296;28;20430;-68
2021/05/27 06:56:48;;;;;;;0.80;0.60;;;;;;;;;;5044040;28;20420;-68
2021/05/27 06:59:13;;;;;;;1.07;0.80;;;;;;;;;;5052605;28;20473;-69
2021/05/27 07:01:39;;;;;;;1.00;0.60;;;;;;;;;;5050898;28;20802;-69
2021/05/27 07:04:05;;;;;;;0.70;0.47;;;;;;;;;;5033507;28;20920;-68
2021/05/27 07:06:31;;;;;;;0.70;0.40;;;;;;;;;;5039728;28;20487;-69
2021/05/27 07:08:57;;;;;;;0.90;0.70;;;;;;;;;;5041999;28;20395;-68
2021/05/27 07:11:23;;;;;;;0.90;0.70;;;;;;;;;;5043279;28;20545;-69
2021/05/27 07:13:49;;;;;;;0.80;0.73;;;;;;;;;;5042363;28;20948;-68
2021/05/27 07:16:15;;;;;;;0.87;0.57;;;;;;;;;;5041977;28;20726;-68
2021/05/27 07:18:41;;;;;;;1.60;0.70;;;;;;;;;;5041069;28;20415;-67
2021/05/27 07:21:07;;;;;;;0.83;0.50;;;;;;;;;;5040871;28;20450;-68
2021/05/27 07:23:33;;;;;;;0.77;0.57;;;;;;;;;;5041189;28;21021;-69
2021/05/27 07:26:03;;;;;;;0.80;0.50;;;;;;;;;;5038977;28;20461;-68
2021/05/27 07:28:29;;;;;;;0.70;0.60;;;;;;;;;;5048885;28;20389;-68
2021/05/27 07:30:55;;;;;;;0.70;0.50;;;;;;;;;;5051301;28;20395;-69
2021/05/27 07:33:21;;;;;;;0.70;0.60;;;;;;;;;;5051190;28;20651;-68
2021/05/27 07:35:47;;;;;;;0.80;0.57;;;;;;;;;;5044715;28;20415;-69
2021/05/27 07:38:13;;;;;;;1.00;0.60;;;;;;;;;;5038884;28;20776;-67
2021/05/27 07:40:39;;;;;;;0.70;0.60;;;;;;;;;;5035175;28;20422;-69
2021/05/27 07:43:05;;;;;;;2.03;1.23;;;;;;;;;;5040843;28;20490;-68
2021/05/27 07:45:31;;;;;;;0.80;0.50;;;;;;;;;;5049416;28;20489;-69
2021/05/27 07:47:57;;;;;;;0.90;0.70;;;;;;;;;;5050992;28;20478;-69
2021/05/27 07:50:23;;;;;;;0.90;0.70;;;;;;;;;;5043436;28;20475;-69
2021/05/27 07:52:50;;;;;;;0.70;0.50;;;;;;;;;;5044575;28;20486;-69
2021/05/27 07:55:16;;;;;;;0.80;0.80;;;;;;;;;;5047457;28;20444;-68
2021/05/27 07:57:42;;;;;;;0.70;0.50;;;;;;;;;;5040229;28;20373;-68
2021/05/27 08:00:08;;;;;;;0.70;0.40;;;;;;;;;;5031214;28;20408;-68
2021/05/27 08:02:34;;;;;;;0.70;0.57;;;;;;;;;;5043840;28;20776;-69
2021/05/27 08:05:00;;;;;;;0.80;0.60;;;;;;;;;;5042927;28;20470;-68
2021/05/27 08:07:26;;;;;;;0.90;0.80;;;;;;;;;;5043319;28;20445;-68
2021/05/27 08:09:52;;;;;;;0.90;0.70;;;;;;;;;;5044243;28;20869;-69
2021/05/27 08:12:18;;;;;;;0.77;0.57;;;;;;;;;;5035194;28;20398;-68
2021/05/27 08:14:45;;;;;;;1.00;0.60;;;;;;;;;;5038132;28;20431;-69
2021/05/27 08:17:11;;;;;;;1.10;0.70;;;;;;;;;;5036302;28;20404;-68
2021/05/27 08:19:37;;;;;;;0.80;0.50;;;;;;;;;;5046902;28;20891;-68
2021/05/27 08:22:05;;;;;;;0.70;0.50;;;;;;;;;;5050217;28;20879;-69
2021/05/27 08:24:31;;;;;;;0.80;0.60;;;;;;;;;;5054018;22;20501;-70
2021/05/27 08:26:58;;;;;;;1.60;0.70;;;;;;;;;;5031843;28;20468;-69
2021/05/27 08:29:24;;;;;;;1.00;0.67;;;;;;;;;;5044052;28;20915;-69
2021/05/27 08:31:50;;;;;;;0.90;0.60;;;;;;;;;;5038060;28;20434;-70
2021/05/27 08:34:18;;;;;;;3.53;0.80;;;;;;;;;;5043400;28;20910;-68
2021/05/27 08:36:44;;;;;;;0.80;0.67;;;;;;;;;;5024316;28;20621;-68
2021/05/27 08:39:10;;;;;;;0.80;0.70;;;;;;;;;;5032866;28;20505;-67
2021/05/27 08:41:36;;;;;;;1.93;0.80;;;;;;;;;;5016554;28;20840;-70
2021/05/27 08:44:03;;;;;;;1.00;0.73;;;;;;;;;;5032595;28;20467;-71
2021/05/27 08:46:29;;;;;;;0.70;0.50;;;;;;;;;;5041643;28;20505;-72
2021/05/27 08:48:55;;;;;;;1.10;0.73;;;;;;;;;;5031361;28;20879;-69
2021/05/27 08:51:21;;;;;;;0.80;0.60;;;;;;;;;;5025473;28;20390;-70
2021/05/27 08:53:47;;;;;;;0.70;0.53;;;;;;;;;;5025634;28;20400;-70
2021/05/27 08:56:13;;;;;;;0.70;0.50;;;;;;;;;;5028192;28;20739;-73
2021/05/27 08:58:40;;;;;;;0.80;0.50;;;;;;;;;;5010476;28;20408;-71
2021/05/27 09:01:07;;;;;;;0.80;0.50;;;;;;;;;;5026790;28;20397;-71
2021/05/27 09:03:42;;;;;;;1.00;0.73;;;;;;;;;;5028749;28;20429;-71
2021/05/27 09:06:10;;;;;;;23.27;1.17;;;;;;;;;;5020435;28;20458;-70
2021/05/27 09:08:38;;;;;;;0.70;0.40;;;;;;;;;;5015169;28;20478;-71
2021/05/27 09:11:04;;;;;;;0.90;0.50;;;;;;;;;;5027116;28;20499;-71
2021/05/27 09:13:31;;;;;;;0.90;0.73;;;;;;;;;;5029375;28;20850;-72
2021/05/27 09:16:07;;;;;;;0.80;0.50;;;;;;;;;;5029361;28;20781;-69
2021/05/27 09:18:38;;;;;;;1.10;0.50;;;;;;;;;;5029901;28;20425;-70
2021/05/27 09:21:06;;;;;;;0.80;0.50;;;;;;;;;;5028927;28;20805;-69
2021/05/27 09:23:32;;;;;;;0.80;0.50;;;;;;;;;;5028841;28;20423;-68
2021/05/27 09:26:13;;;;;;;0.70;0.60;;;;;;;;;;5034660;28;20459;-69
2021/05/27 09:28:39;;;;;;;1.57;1.00;;;;;;;;;;5039871;28;20417;-70
2021/05/27 09:31:06;;;;;;;1.00;0.70;;;;;;;;;;5045713;28;20876;-71
2021/05/27 09:33:32;;;;;;;0.80;0.57;;;;;;;;;;5038685;28;20418;-68
2021/05/27 09:36:02;;;;;;;1.30;0.70;;;;;;;;;;5032528;28;20834;-70
2021/05/27 09:38:29;;;;;;;1.30;0.60;;;;;;;;;;5028385;28;20849;-70
2021/05/27 09:40:55;;;;;;;1.10;1.00;;;;;;;;;;5035028;28;20394;-71
2021/05/27 09:43:22;;;;;;;1.00;0.77;;;;;;;;;;5029316;28;20386;-69
2021/05/27 09:45:59;;;;;;;0.80;0.60;;;;;;;;;;5031384;28;20452;-69
2021/05/27 09:48:25;;;;;;;1.60;0.80;;;;;;;;;;5027754;28;20419;-72
2021/05/27 09:50:55;;;;;;;0.70;0.50;;;;;;;;;;5018472;28;20422;-69
2021/05/27 09:53:21;;;;;;;0.87;0.73;;;;;;;;;;5031975;28;20401;-70
2021/05/27 09:55:48;;;;;;;33.80;1.43;;;;;;;;;;5036716;28;20455;-70
2021/05/27 09:58:15;;;;;;;0.90;0.60;;;;;;;;;;5035441;28;20389;-68
2021/05/27 10:00:42;;;;;;;0.70;0.57;;;;;;;;;;5027054;28;20423;-69
2021/05/27 10:03:22;;;;;;;0.70;0.50;;;;;;;;;;5038871;28;20401;-69
2021/05/27 10:05:48;;;;;;;0.70;0.53;;;;;;;;;;5032036;28;20491;-69
2021/05/27 10:08:13;;;;;;;0.90;0.70;;;;;;;;;;5036651;28;20451;-70
2021/05/27 10:10:42;;;;;;;0.80;0.60;;;;;;;;;;5017444;28;20413;-70
2021/05/27 10:13:09;;;;;;;1.30;0.60;;;;;;;;;;4988744;28;20424;-70
2021/05/27 10:15:35;;;;;;;3.30;1.10;;;;;;;;;;5024509;28;20822;-69
2021/05/27 10:18:04;;;;;;;0.77;0.50;;;;;;;;;;5027133;28;20443;-69
2021/05/27 10:20:30;;;;;;;1.47;0.90;;;;;;;;;;5026614;28;20817;-70
2021/05/27 10:22:57;;;;;;;0.70;0.40;;;;;;;;;;5026753;28;20424;-71
2021/05/27 10:25:24;;;;;;;0.80;0.60;;;;;;;;;;5008250;28;20459;-70
2021/05/27 10:27:51;;;;;;;1.07;0.70;;;;;;;;;;5010001;28;20404;-70
2021/05/27 10:30:21;;;;;;;1.00;0.80;;;;;;;;;;5023477;28;20432;-70
2021/05/27 10:32:50;;;;;;;0.70;0.50;;;;;;;;;;5022835;28;20826;-70
2021/05/27 10:35:16;;;;;;;0.93;0.57;;;;;;;;;;5024033;28;20406;-69
2021/05/27 10:37:43;;;;;;;1.17;0.90;;;;;;;;;;5011574;28;20412;-69
2021/05/27 10:40:12;;;;;;;0.70;0.50;;;;;;;;;;5021451;28;20391;-71
2021/05/27 10:42:56;;;;;;;0.70;0.50;;;;;;;;;;5023515;28;20795;-71
2021/05/27 10:45:26;;;;;;;0.80;0.70;;;;;;;;;;5030371;28;20791;-70
2021/05/27 10:48:11;;;;;;;1.10;0.70;;;;;;;;;;5026191;28;20879;-68
2021/05/27 10:50:50;;;;;;;1.00;0.90;;;;;;;;;;5029032;28;20443;-71
2021/05/27 10:53:40;;;;;;;1.13;1.03;;;;;;;;;;5019801;28;20390;-71
2021/05/27 10:56:06;;;;;;;1.30;1.20;;;;;;;;;;5025076;28;20945;-70
2021/05/27 10:58:48;;;;;;;0.80;0.70;;;;;;;;;;5026865;28;20414;-71
2021/05/27 11:01:17;;;;;;;0.80;0.50;;;;;;;;;;5024184;28;20375;-72
2021/05/27 11:03:44;;;;;;;7.60;1.63;;;;;;;;;;5023084;28;20503;-72
2021/05/27 11:06:20;;;;;;;1.10;0.80;;;;;;;;;;5029584;28;20839;-70
2021/05/27 11:08:47;;;;;;;2.40;0.70;;;;;;;;;;5028500;28;20378;-71
2021/05/27 11:11:35;;;;;;;1.00;0.60;;;;;;;;;;5028640;28;20393;-69
2021/05/27 11:14:17;;;;;;;0.70;0.50;;;;;;;;;;5029513;28;20848;-71
2021/05/27 11:17:16;;;;;;;0.73;0.50;;;;;;;;;;5031850;28;20423;-67
2021/05/27 11:22:33;;;;;;;1.70;0.97;;;;;;;;;;5029055;28;20426;-71
2021/05/27 11:25:08;;;;;;;1.93;0.93;;;;;;;;;;5032995;28;20542;-71
2021/05/27 11:27:35;;;;;;;0.87;0.73;;;;;;;;;;5030969;28;20430;-70
2021/05/27 11:30:13;;;;;;;0.70;0.50;;;;;;;;;;5031311;28;20435;-71
2021/05/27 11:32:39;;;;;;;0.70;0.50;;;;;;;;;;5037106;28;20424;-69
2021/05/27 11:35:05;;;;;;;0.80;0.73;;;;;;;;;;5031714;28;20486;-68
2021/05/27 11:37:35;;;;;;;0.93;0.63;;;;;;;;;;5024609;28;20412;-70
2021/05/27 11:40:01;;;;;;;1.00;0.80;;;;;;;;;;5033664;28;20704;-70
2021/05/27 11:42:27;;;;;;;0.70;0.50;;;;;;;;;;5021842;28;20388;-70
2021/05/27 11:44:57;;;;;;;1.97;0.63;;;;;;;;;;5040672;28;20406;-70
2021/05/27 11:47:23;;;;;;;0.83;0.60;;;;;;;;;;5035851;28;20575;-71
2021/05/27 11:50:09;;;;;;;0.80;0.70;;;;;;;;;;5022315;28;20393;-72
2021/05/27 11:52:35;;;;;;;0.73;0.53;;;;;;;;;;5041027;28;20419;-70
2021/05/27 11:55:01;;;;;;;0.70;0.50;;;;;;;;;;5039776;28;20431;-69
2021/05/27 11:57:59;;;;;;;1.07;0.67;;;;;;;;;;5043948;28;20431;-69
2021/05/27 12:00:25;;;;;;;0.90;0.77;;;;;;;;;;5007294;28;20760;-69
2021/05/27 12:02:57;;;;;;;1.00;0.70;;;;;;;;;;5033608;28;20407;-69
2021/05/27 12:05:22;;;;;;;0.80;0.60;;;;;;;;;;5030556;28;20991;-69
2021/05/27 12:08:04;;;;;;;0.70;0.50;;;;;;;;;;5032482;28;20463;-70
2021/05/27 12:10:31;;;;;;;0.70;0.50;;;;;;;;;;5036640;28;20416;-69
2021/05/27 12:12:58;;;;;;;0.87;0.50;;;;;;;;;;5013006;28;20837;-68
2021/05/27 12:15:25;;;;;;;0.80;0.60;;;;;;;;;;5036768;28;20434;-69
2021/05/27 12:17:52;;;;;;;0.80;0.50;;;;;;;;;;5038630;28;20397;-69
2021/05/27 12:20:28;;;;;;;1.10;0.70;;;;;;;;;;5036572;28;20414;-69
2021/05/27 12:22:56;;;;;;;1.00;0.63;;;;;;;;;;5031901;28;21062;-70
2021/05/27 12:25:24;;;;;;;0.87;0.60;;;;;;;;;;5032113;28;20439;-68
2021/05/27 12:27:54;;;;;;;1.87;1.77;;;;;;;;;;5030337;28;20452;-69
2021/05/27 12:30:20;;;;;;;1.63;0.80;;;;;;;;;;5031070;28;20778;-70
2021/05/27 12:32:50;;;;;;;0.70;0.50;;;;;;;;;;5012932;28;20436;-69
2021/05/27 12:35:17;;;;;;;0.80;0.50;;;;;;;;;;5039932;28;20855;-69
2021/05/27 12:37:47;;;;;;;0.70;0.50;;;;;;;;;;5023899;28;20504;-70
2021/05/27 12:40:17;;;;;;;2.73;2.63;;;;;;;;;;5040170;28;20374;-69
2021/05/27 12:42:43;;;;;;;0.93;0.50;;;;;;;;;;5039960;28;20499;-69
2021/05/27 12:45:22;;;;;;;1.00;0.70;;;;;;;;;;5038849;28;20939;-69
2021/05/27 12:48:02;;;;;;;0.70;0.50;;;;;;;;;;5036053;28;20425;-68
2021/05/27 12:50:28;;;;;;;0.70;0.50;;;;;;;;;;5047083;28;20386;-70
2021/05/27 12:52:54;;;;;;;0.80;0.40;;;;;;;;;;5035954;28;20408;-69
2021/05/27 12:55:26;;;;;;;0.70;0.53;;;;;;;;;;5034033;28;20515;-70
2021/05/27 12:57:53;;;;;;;0.80;0.60;;;;;;;;;;5038474;28;20418;-68
2021/05/27 13:00:19;;;;;;;3.13;0.60;;;;;;;;;;5041745;28;20382;-70
2021/05/27 13:02:45;;;;;;;1.27;0.50;;;;;;;;;;5039076;28;20402;-70
2021/05/27 13:05:17;;;;;;;0.70;0.50;;;;;;;;;;5041331;28;20466;-69
2021/05/27 13:07:59;;;;;;;0.70;0.53;;;;;;;;;;5035513;28;20457;-68
2021/05/27 13:10:28;;;;;;;0.70;0.50;;;;;;;;;;5047748;28;20403;-71
2021/05/27 13:12:54;;;;;;;0.80;0.60;;;;;;;;;;5055176;28;20375;-70
2021/05/27 13:15:21;;;;;;;0.70;0.40;;;;;;;;;;5048038;28;20455;-70
2021/05/27 13:18:05;;;;;;;1.10;0.57;;;;;;;;;;5032102;28;20910;-69
2021/05/27 13:20:32;;;;;;;0.70;0.40;;;;;;;;;;5037651;28;20419;-70
2021/05/27 13:22:58;;;;;;;0.80;0.60;;;;;;;;;;5031512;28;20419;-69
2021/05/27 13:25:30;;;;;;;0.70;0.40;;;;;;;;;;5031386;28;20444;-70
2021/05/27 13:27:58;;;;;;;0.70;0.50;;;;;;;;;;5030813;28;20395;-69
2021/05/27 13:30:32;;;;;;;0.70;0.40;;;;;;;;;;5030184;28;20392;-69
2021/05/27 13:33:06;;;;;;;0.80;0.60;;;;;;;;;;5030951;28;20466;-68
2021/05/27 13:35:32;;;;;;;0.80;0.50;;;;;;;;;;5030114;28;20510;-69
2021/05/27 13:37:59;;;;;;;0.90;0.60;;;;;;;;;;5030464;28;20385;-69
2021/05/27 13:40:29;;;;;;;0.70;0.50;;;;;;;;;;5029444;28;20403;-69
2021/05/27 13:42:56;;;;;;;2.70;0.80;;;;;;;;;;5013460;28;20498;-70
2021/05/27 13:45:22;;;;;;;0.80;0.60;;;;;;;;;;5030874;28;20806;-69
2021/05/27 13:47:49;;;;;;;0.70;0.50;;;;;;;;;;5013849;28;20467;-70
2021/05/27 13:50:16;;;;;;;0.80;0.50;;;;;;;;;;5029845;28;20428;-68
2021/05/27 13:52:44;;;;;;;0.80;0.67;;;;;;;;;;5013750;28;20404;-70
2021/05/27 13:55:10;;;;;;;0.80;0.50;;;;;;;;;;5037750;28;20435;-72
2021/05/27 13:57:36;;;;;;;0.90;0.60;;;;;;;;;;5038513;28;20430;-68
2021/05/27 14:00:09;;;;;;;1.07;0.67;;;;;;;;;;5030472;28;20448;-69
2021/05/27 14:02:35;;;;;;;0.70;0.40;;;;;;;;;;5025485;28;20381;-70
2021/05/27 14:05:05;;;;;;;1.40;0.60;;;;;;;;;;5032044;28;20507;-66
2021/05/27 14:07:31;;;;;;;0.80;0.70;;;;;;;;;;5011580;28;20425;-67
2021/05/27 14:09:57;;;;;;;0.77;0.50;;;;;;;;;;5023315;28;20429;-69
2021/05/27 14:12:23;;;;;;;0.80;0.60;;;;;;;;;;5027378;28;20878;-66
2021/05/27 14:14:49;;;;;;;0.93;0.73;;;;;;;;;;5029987;28;20757;-69
2021/05/27 14:17:15;;;;;;;0.70;0.40;;;;;;;;;;5030400;28;20949;-69
2021/05/27 14:19:41;;;;;;;1.27;0.80;;;;;;;;;;5019787;28;20426;-67
2021/05/27 14:22:07;;;;;;;1.10;0.63;;;;;;;;;;5040039;28;20402;-68
2021/05/27 14:24:36;;;;;;;2.40;0.77;;;;;;;;;;5032831;28;20437;-70
2021/05/27 14:27:02;;;;;;;0.80;0.60;;;;;;;;;;4995919;28;20444;-67
2021/05/27 14:29:28;;;;;;;0.90;0.60;;;;;;;;;;5059957;22;20804;-73
2021/05/27 14:31:54;;;;;;;0.80;0.53;;;;;;;;;;5053869;28;20439;-73
2021/05/27 14:34:21;;;;;;;1.20;0.77;;;;;;;;;;5044480;28;20387;-73
2021/05/27 14:36:51;;;;;;;0.70;0.50;;;;;;;;;;5047466;28;20420;-72
2021/05/27 14:39:17;;;;;;;1.30;1.10;;;;;;;;;;5042462;28;20383;-73
2021/05/27 14:41:43;;;;;;;0.70;0.50;;;;;;;;;;5023677;28;20441;-73
2021/05/27 14:44:09;;;;;;;0.90;0.70;;;;;;;;;;5037984;28;20488;-72
2021/05/27 14:46:35;;;;;;;0.80;0.60;;;;;;;;;;5020749;28;20546;-74
2021/05/27 14:49:01;;;;;;;0.70;0.50;;;;;;;;;;5046822;28;20410;-73
2021/05/27 14:51:27;;;;;;;0.80;0.70;;;;;;;;;;5033265;28;20969;-74
2021/05/27 14:53:53;;;;;;;0.70;0.50;;;;;;;;;;5034120;28;20406;-72